Time;durP1;ratioP1;P1;durP2;ratioP2;P2;SDS_P1;SDS_P2;PMS_P1;PMS_P2;Temp;Humidity;BMP_temperature;BMP_pressure;BME280_temperature;BME280_humidity;BME280_pressure;Samples;Min_cycle;Max_cycle;Signal;HPM_P1;HPM_P2
2023/01/29 00:02:08;;;;;;;11.00;5.20;;;;;;;-1.68;87.05;99236.71;106341;1267;137992;-71
2023/01/29 00:04:35;;;;;;;12.90;5.80;;;;;;;-1.70;87.08;99233.09;106466;1285;22563;-71
2023/01/29 00:07:02;;;;;;;10.40;5.40;;;;;;;-1.72;86.81;99225.45;106501;1285;22546;-71
2023/01/29 00:09:30;;;;;;;10.00;5.30;;;;;;;-1.73;86.80;99232.13;106353;1268;139550;-71
2023/01/29 00:11:57;;;;;;;11.00;6.00;;;;;;;-1.72;87.12;99237.04;106515;1284;25374;-71
2023/01/29 00:14:25;;;;;;;10.90;5.60;;;;;;;-1.70;87.21;99236.02;106403;1284;138020;-71
2023/01/29 00:16:52;;;;;;;9.80;6.10;;;;;;;-1.69;87.07;99233.79;106373;1274;22533;-71
2023/01/29 00:19:19;;;;;;;10.90;6.10;;;;;;;-1.69;87.19;99234.61;106395;1276;22628;-71
2023/01/29 00:21:46;;;;;;;11.50;5.90;;;;;;;-1.68;86.99;99231.50;106220;1285;137794;-71
2023/01/29 00:24:13;;;;;;;11.70;6.20;;;;;;;-1.68;86.83;99236.34;106320;1285;22711;-72
2023/01/29 00:26:41;;;;;;;12.20;6.50;;;;;;;-1.69;86.94;99240.37;106231;1285;138624;-71
2023/01/29 00:29:08;;;;;;;12.60;6.60;;;;;;;-1.71;87.19;99244.98;106766;1280;24299;-72
2023/01/29 00:31:35;;;;;;;13.00;6.30;;;;;;;-1.74;87.16;99251.99;106305;1273;138389;-71
2023/01/29 00:34:02;;;;;;;12.40;6.70;;;;;;;-1.76;87.19;99250.02;106602;1284;22529;-72
2023/01/29 00:36:29;;;;;;;18.00;7.70;;;;;;;-1.76;87.13;99256.45;106523;1285;22552;-71
2023/01/29 00:38:58;;;;;;;12.80;7.30;;;;;;;-1.76;87.29;99252.18;106362;1281;138384;-71
2023/01/29 00:46:58;;;;;;;18.60;8.70;;;;;;;-1.78;87.85;99251.17;106560;1281;22533;-71
2023/01/29 00:49:25;;;;;;;14.40;7.60;;;;;;;-1.79;87.91;99252.50;106327;1276;138170;-71
2023/01/29 00:54:37;;;;;;;13.60;7.40;;;;;;;-1.81;88.07;99260.82;106393;1284;24218;-71
2023/01/29 00:57:04;;;;;;;13.00;6.90;;;;;;;-1.82;87.70;99260.46;106298;1284;138628;-71
2023/01/29 00:59:31;;;;;;;15.70;7.80;;;;;;;-1.83;88.09;99260.55;106294;1284;22555;-71
2023/01/29 01:04:44;;;;;;;14.00;7.10;;;;;;;-1.86;87.62;99260.24;106467;1284;22549;-71
2023/01/29 01:07:11;;;;;;;15.70;8.20;;;;;;;-1.87;87.61;99258.41;106506;1284;22808;-71
2023/01/29 01:12:24;;;;;;;16.10;8.20;;;;;;;-1.88;87.60;99263.29;106407;1275;25479;-71
2023/01/29 01:14:51;;;;;;;14.60;7.10;;;;;;;-1.90;87.55;99261.38;106295;1284;138580;-71
2023/01/29 01:17:17;;;;;;;13.30;7.00;;;;;;;-1.91;87.31;99258.64;106408;1284;25353;-71
2023/01/29 01:19:44;;;;;;;15.20;7.60;;;;;;;-1.92;87.34;99261.76;106270;1284;138555;-71
2023/01/29 01:22:12;;;;;;;14.60;8.40;;;;;;;-1.93;87.33;99265.67;106472;1266;22573;-71
2023/01/29 01:24:39;;;;;;;15.90;8.00;;;;;;;-1.94;87.77;99266.86;107907;1279;22237;-72
2023/01/29 01:27:06;;;;;;;15.40;8.40;;;;;;;-1.95;87.50;99268.98;106586;1284;138623;-71
2023/01/29 01:29:33;;;;;;;14.80;8.00;;;;;;;-1.96;87.54;99268.01;106337;1284;22570;-71
2023/01/29 01:32:00;;;;;;;17.20;9.40;;;;;;;-1.97;87.77;99261.79;106312;1264;138315;-71
2023/01/29 01:34:27;;;;;;;12.30;7.10;;;;;;;-1.97;87.37;99263.39;106544;1283;25419;-72
2023/01/29 01:36:55;;;;;;;13.20;7.30;;;;;;;-1.97;87.13;99274.63;106508;1284;22739;-71
2023/01/29 01:39:23;;;;;;;14.00;7.00;;;;;;;-1.97;86.89;99273.42;106423;1273;138522;-71
2023/01/29 01:41:54;;;;;;;13.50;6.20;;;;;;;-1.98;86.65;99270.85;106461;1267;25234;-72
2023/01/29 01:44:54;;;;;;;12.50;6.10;;;;;;;-2.00;86.50;99273.35;106318;1284;138044;-71
2023/01/29 01:47:29;;;;;;;11.30;6.30;;;;;;;-2.01;86.83;99270.98;106372;1284;22574;-74
2023/01/29 01:50:01;;;;;;;14.30;5.70;;;;;;;-2.05;85.98;99268.61;106294;1284;139554;-72
2023/01/29 01:52:30;;;;;;;10.20;5.50;;;;;;;-2.07;85.65;99263.67;106442;1266;22590;-71
2023/01/29 01:54:59;;;;;;;10.80;6.20;;;;;;;-2.07;85.41;99266.18;106477;1284;22561;-71
2023/01/29 01:57:28;;;;;;;11.80;6.20;;;;;;;-2.06;85.66;99265.92;106693;1284;137986;-71
2023/01/29 02:00:12;;;;;;;12.30;6.70;;;;;;;-2.06;85.84;99261.59;106956;1280;22669;-71
2023/01/29 02:11:24;;;;;;;15.00;7.70;;;;;;;-2.03;86.08;99251.56;106352;1264;24214;-72
2023/01/29 02:13:52;;;;;;;15.10;7.60;;;;;;;-2.02;86.02;99247.75;106372;1282;138326;-71
2023/01/29 02:16:25;;;;;;;13.50;7.10;;;;;;;-2.01;86.06;99246.71;106748;1284;24363;-71
2023/01/29 02:18:52;;;;;;;15.90;7.70;;;;;;;-2.00;86.17;99237.09;106498;1283;25338;-71
2023/01/29 02:21:47;;;;;;;18.30;8.60;;;;;;;-1.98;86.11;99233.83;106292;1284;138394;-71
2023/01/29 02:24:47;;;;;;;17.50;8.70;;;;;;;-1.96;86.27;99232.58;106306;1266;24215;-71
2023/01/29 02:27:25;;;;;;;17.50;9.30;;;;;;;-1.96;86.32;99227.46;105737;1292;139213;-71
2023/01/29 02:30:11;;;;;;;21.30;9.10;;;;;;;-1.98;86.09;99220.08;105856;1292;22812;-72
2023/01/29 02:32:58;;;;;;;24.40;12.80;;;;;;;-1.99;86.16;99227.84;105857;1267;141777;-71
2023/01/29 02:35:33;;;;;;;20.70;9.90;;;;;;;-2.00;85.86;99229.41;106231;1288;22561;-71
2023/01/29 02:38:00;;;;;;;19.90;9.30;;;;;;;-2.02;85.65;99230.45;106275;1290;138678;-71
2023/01/29 02:40:34;;;;;;;16.90;9.20;;;;;;;-2.04;85.43;99230.80;106456;1273;23388;-71
2023/01/29 02:43:23;;;;;;;18.80;9.60;;;;;;;-2.09;84.65;99223.63;106169;1280;22542;-71
2023/01/29 02:46:01;;;;;;;17.10;8.50;;;;;;;-2.12;84.55;99222.52;106417;1279;22553;-72
2023/01/29 02:48:38;;;;;;;18.80;10.50;;;;;;;-2.17;84.53;99218.23;106199;1288;22709;-71
2023/01/29 02:51:13;;;;;;;19.40;9.20;;;;;;;-2.21;84.76;99224.60;106044;1289;138884;-72
2023/01/29 02:54:02;;;;;;;17.60;9.30;;;;;;;-2.24;84.65;99221.37;107032;1270;23060;-72
2023/01/29 02:56:38;;;;;;;18.30;9.30;;;;;;;-2.28;84.57;99216.02;107408;1282;138499;-72
2023/01/29 02:59:13;;;;;;;19.40;9.50;;;;;;;-2.31;84.57;99213.73;107622;1285;22568;-72
2023/01/29 03:01:46;;;;;;;22.10;10.40;;;;;;;-2.33;84.37;99221.44;106149;1286;138650;-73
2023/01/29 03:04:23;;;;;;;19.90;10.20;;;;;;;-2.36;84.31;99222.85;107334;1267;25317;-73
2023/01/29 03:07:01;;;;;;;20.60;10.30;;;;;;;-2.39;84.74;99223.14;107593;1277;22940;-73
2023/01/29 03:09:33;;;;;;;19.80;9.00;;;;;;;-2.43;84.84;99221.15;107130;1276;138301;-73
2023/01/29 03:12:17;;;;;;;20.40;9.70;;;;;;;-2.43;85.12;99230.23;106687;1273;22544;-72
2023/01/29 03:17:42;;;;;;;19.30;9.70;;;;;;;-2.44;85.11;99241.88;106586;1280;25027;-71
2023/01/29 03:20:16;;;;;;;19.70;9.10;;;;;;;-2.42;85.33;99247.73;107030;1261;138020;-72
2023/01/29 03:22:49;;;;;;;20.10;8.20;;;;;;;-2.45;84.74;99242.99;106546;1276;22554;-73
2023/01/29 03:34:37;;;;;;;16.00;8.50;;;;;;;-2.52;83.82;99255.59;106883;1263;138696;-72
2023/01/29 03:37:17;;;;;;;15.90;8.10;;;;;;;-2.54;84.40;99255.59;106066;1289;25247;-72
2023/01/29 03:39:45;;;;;;;14.90;7.90;;;;;;;-2.55;84.19;99261.39;106438;1290;138031;-72
2023/01/29 03:42:30;;;;;;;15.70;8.20;;;;;;;-2.56;84.24;99257.40;106231;1289;22964;-72
2023/01/29 03:45:10;;;;;;;14.70;8.60;;;;;;;-2.58;84.43;99256.29;106049;1288;138042;-71
2023/01/29 03:48:09;;;;;;;16.80;8.60;;;;;;;-2.57;84.61;99258.89;106957;1283;22438;-72
2023/01/29 03:50:52;;;;;;;19.50;10.20;;;;;;;-2.56;84.66;99251.50;108574;1286;138053;-72
2023/01/29 03:54:04;;;;;;;13.50;8.50;;;;;;;-2.53;84.82;99243.80;106560;1281;22793;-72
2023/01/29 03:57:10;;;;;;;20.50;10.20;;;;;;;-2.51;84.88;99244.23;106624;1283;138208;-72
2023/01/29 03:59:53;;;;;;;19.90;10.00;;;;;;;-2.47;85.13;99236.80;106566;1283;24343;-72
2023/01/29 04:02:49;;;;;;;;;;;;;;;-2.43;84.82;99237.71;106736;1283;280483;-73
2023/01/29 04:05:21;;;;;;;20.20;9.80;;;;;;;-2.42;84.81;99239.54;109154;1271;22604;-71
2023/01/29 04:08:10;;;;;;;21.20;10.80;;;;;;;-2.39;84.68;99237.70;106040;1288;138202;-71
2023/01/29 04:10:41;;;;;;;20.30;11.20;;;;;;;-2.36;84.72;99234.66;108660;1284;22564;-72
2023/01/29 04:13:11;;;;;;;21.20;11.80;;;;;;;-2.34;84.53;99232.79;107497;1285;25699;-71
2023/01/29 04:15:47;;;;;;;18.40;10.60;;;;;;;-2.32;84.66;99230.48;106935;1267;138228;-71
2023/01/29 04:18:14;;;;;;;25.80;12.10;;;;;;;-2.31;84.70;99219.87;106373;1285;22552;-71
2023/01/29 04:21:08;;;;;;;20.60;10.50;;;;;;;-2.30;84.64;99222.21;106388;1277;138222;-71
2023/01/29 04:23:35;;;;;;;21.90;11.20;;;;;;;-2.30;84.89;99216.05;107978;1272;24354;-71
2023/01/29 04:26:23;;;;;;;20.30;11.40;;;;;;;-2.30;84.77;99214.81;106310;1264;138501;-71
2023/01/29 04:29:03;;;;;;;22.40;12.30;;;;;;;-2.29;84.92;99209.02;106495;1285;22723;-71
2023/01/29 04:31:37;;;;;;;23.50;11.80;;;;;;;-2.29;84.99;99213.45;106457;1284;139606;-72
2023/01/29 04:34:27;;;;;;;21.50;11.50;;;;;;;-2.29;85.13;99212.19;106638;1274;23124;-71
2023/01/29 04:37:16;;;;;;;20.90;11.10;;;;;;;-2.27;85.22;99207.98;106388;1277;25326;-71
2023/01/29 04:40:15;;;;;;;23.30;11.20;;;;;;;-2.28;85.29;99196.83;106789;1284;138161;-71
2023/01/29 04:43:04;;;;;;;;;;;;;;;-2.28;85.39;99185.56;106509;1284;22541;-71
2023/01/29 04:45:38;;;;;;;20.60;10.90;;;;;;;-2.30;85.39;99174.40;106468;1260;124506;-71
2023/01/29 04:48:28;;;;;;;22.10;11.50;;;;;;;-2.31;85.74;99171.14;106456;1285;22539;-71
2023/01/29 04:51:06;;;;;;;22.10;11.80;;;;;;;-2.32;85.80;99170.53;106301;1285;138184;-72
2023/01/29 04:53:49;;;;;;;18.90;9.80;;;;;;;-2.33;86.10;99167.59;106439;1285;26748;-71
2023/01/29 04:56:45;;;;;;;24.10;10.60;;;;;;;-2.35;86.16;99171.86;106333;1262;138830;-71
2023/01/29 04:59:20;;;;;;;18.80;9.80;;;;;;;-2.36;86.16;99171.08;106510;1268;22555;-72
2023/01/29 05:01:48;;;;;;;17.00;8.90;;;;;;;-2.39;85.84;99170.13;106430;1284;138506;-72
2023/01/29 05:04:19;;;;;;;16.50;9.20;;;;;;;-2.43;85.62;99170.67;106517;1284;22557;-72
2023/01/29 05:06:47;;;;;;;19.10;8.90;;;;;;;-2.46;85.62;99164.56;106495;1284;24259;-71
2023/01/29 05:09:16;;;;;;;13.90;8.50;;;;;;;-2.48;85.81;99160.60;106535;1285;138260;-71
2023/01/29 05:11:45;;;;;;;15.50;8.90;;;;;;;-2.50;85.76;99161.48;106527;1285;24254;-72
2023/01/29 05:14:13;;;;;;;;;;;;;;;-2.54;85.42;99163.79;106774;1285;139030;-72
2023/01/29 05:16:49;;;;;;;15.30;7.30;;;;;;;-2.57;85.56;99172.14;106623;1265;22566;-72
2023/01/29 05:19:16;;;;;;;13.40;8.60;;;;;;;-2.61;85.60;99172.14;106548;1276;22550;-72
2023/01/29 05:21:48;;;;;;;12.50;7.50;;;;;;;-2.64;85.50;99175.83;106421;1284;139016;-72
2023/01/29 05:24:19;;;;;;;14.40;8.70;;;;;;;-2.70;85.80;99176.81;106530;1284;24250;-72
2023/01/29 05:29:33;;;;;;;14.60;8.30;;;;;;;-2.75;85.77;99182.91;106445;1285;23941;-72
2023/01/29 05:32:00;;;;;;;16.90;9.10;;;;;;;-2.78;85.63;99186.11;106357;1273;138246;-72
2023/01/29 05:34:27;;;;;;;16.50;9.50;;;;;;;-2.78;85.71;99186.90;106460;1284;23225;-72
2023/01/29 05:36:54;;;;;;;18.20;8.70;;;;;;;-2.79;85.52;99183.61;106486;1265;22538;-72
2023/01/29 05:39:20;;;;;;;14.50;9.50;;;;;;;-2.80;85.34;99186.77;106461;1284;138418;-72
2023/01/29 05:41:47;;;;;;;14.30;7.30;;;;;;;-2.82;85.68;99186.70;106740;1281;24098;-72
2023/01/29 05:44:14;;;;;;;17.50;9.70;;;;;;;-2.82;85.40;99192.42;106668;1278;138400;-72
2023/01/29 05:46:42;;;;;;;13.00;8.20;;;;;;;-2.82;85.23;99193.69;106541;1263;22838;-72
2023/01/29 05:49:09;;;;;;;13.20;7.60;;;;;;;-2.83;84.38;99197.67;106447;1277;24320;-72
2023/01/29 05:51:36;;;;;;;12.70;7.70;;;;;;;-2.85;84.43;99203.52;106443;1277;138144;-72
2023/01/29 05:54:03;;;;;;;15.70;7.90;;;;;;;-2.86;84.00;99205.70;106542;1277;22572;-72
2023/01/29 05:56:30;;;;;;;15.70;8.10;;;;;;;-2.88;83.60;99210.88;106350;1283;140007;-72
2023/01/29 05:58:57;;;;;;;14.90;8.10;;;;;;;-2.90;83.68;99211.79;106630;1265;23530;-73
2023/01/29 06:01:24;;;;;;;17.70;9.00;;;;;;;-2.91;83.66;99212.88;106891;1285;22543;-72
2023/01/29 06:03:51;;;;;;;13.50;7.00;;;;;;;-2.90;83.88;99215.88;106637;1285;138121;-72
2023/01/29 06:06:18;;;;;;;12.10;6.70;;;;;;;-2.90;83.41;99215.33;106401;1285;25232;-72
2023/01/29 06:08:46;;;;;;;12.70;7.20;;;;;;;-2.93;82.28;99220.93;106451;1267;138362;-72
2023/01/29 06:11:15;;;;;;;11.40;6.80;;;;;;;-2.99;81.58;99216.50;106549;1284;22653;-72
2023/01/29 06:13:42;;;;;;;11.20;6.80;;;;;;;-3.04;81.66;99215.04;106825;1276;138645;-72
2023/01/29 06:16:11;;;;;;;12.00;6.90;;;;;;;-3.07;81.66;99215.99;106421;1274;22628;-72
2023/01/29 06:18:39;;;;;;;10.70;6.20;;;;;;;-3.08;82.04;99217.14;106505;1266;22556;-72
2023/01/29 06:21:10;;;;;;;9.80;6.30;;;;;;;-3.08;81.91;99220.89;106533;1285;138548;-72
2023/01/29 06:23:37;;;;;;;10.20;5.90;;;;;;;-3.10;81.79;99226.02;106489;1285;25225;-72
2023/01/29 06:26:07;;;;;;;11.80;6.80;;;;;;;-3.12;81.74;99227.28;106371;1262;138536;-72
2023/01/29 06:28:34;;;;;;;10.40;6.30;;;;;;;-3.12;82.06;99225.45;106520;1265;22677;-72
2023/01/29 06:31:03;;;;;;;12.70;6.60;;;;;;;-3.11;81.94;99229.66;106477;1284;22642;-72
2023/01/29 06:33:30;;;;;;;8.50;5.90;;;;;;;-3.11;81.73;99229.16;106358;1284;138217;-72
2023/01/29 06:35:58;;;;;;;10.50;5.80;;;;;;;-3.12;81.33;99234.01;106387;1284;25191;-73
2023/01/29 06:38:26;;;;;;;10.20;6.00;;;;;;;-3.15;81.12;99238.22;106789;1265;138149;-74
2023/01/29 06:40:54;;;;;;;12.30;6.40;;;;;;;-3.18;81.29;99239.92;106442;1276;25179;-73
2023/01/29 06:43:22;;;;;;;10.60;6.70;;;;;;;-3.21;81.38;99243.34;106415;1284;22536;-73
2023/01/29 06:45:51;;;;;;;12.20;5.90;;;;;;;-3.22;81.22;99246.47;106443;1276;138455;-72
2023/01/29 06:48:18;;;;;;;10.30;6.40;;;;;;;-3.26;80.82;99244.33;107244;1278;22750;-73
2023/01/29 06:50:46;;;;;;;11.00;6.40;;;;;;;-3.30;80.87;99247.14;106886;1281;138633;-73
2023/01/29 06:53:13;;;;;;;8.90;5.40;;;;;;;-3.31;80.94;99249.20;106578;1276;22548;-73
2023/01/29 06:55:39;;;;;;;11.30;6.50;;;;;;;-3.33;80.69;99250.11;106388;1283;138486;-72
2023/01/29 06:58:09;;;;;;;7.90;5.10;;;;;;;-3.34;80.81;99242.87;106479;1262;22627;-73
2023/01/29 07:00:36;;;;;;;;;;;;;;;-3.33;80.52;99239.25;106852;1283;22853;-73
2023/01/29 07:03:03;;;;;;;9.50;5.40;;;;;;;-3.34;80.24;99236.20;106394;1284;126063;-73
2023/01/29 07:05:30;;;;;;;10.60;5.70;;;;;;;-3.38;80.04;99240.76;106575;1284;25486;-72
2023/01/29 07:07:57;;;;;;;8.70;5.70;;;;;;;-3.41;80.36;99242.67;106906;1284;139508;-74
2023/01/29 07:10:24;;;;;;;11.40;6.40;;;;;;;-3.44;80.86;99247.84;106492;1262;22590;-73
2023/01/29 07:12:51;;;;;;;8.50;5.50;;;;;;;-3.46;80.78;99255.49;106463;1285;23735;-73
2023/01/29 07:15:20;;;;;;;6.70;4.70;;;;;;;-3.50;80.69;99264.94;106385;1285;138634;-72
2023/01/29 07:18:01;;;;;;;5.20;3.20;;;;;;;-3.54;80.99;99261.84;106427;1285;22825;-72
2023/01/29 07:20:29;;;;;;;6.90;3.60;;;;;;;-3.58;80.61;99258.67;106432;1284;138462;-73
2023/01/29 07:22:57;;;;;;;3.50;2.60;;;;;;;-3.62;80.47;99262.06;106534;1284;22571;-73
2023/01/29 07:25:24;;;;;;;6.50;3.80;;;;;;;-3.67;80.52;99257.81;106543;1281;22559;-73
2023/01/29 07:27:51;;;;;;;7.00;3.90;;;;;;;-3.68;81.16;99259.33;106760;1284;138514;-73
2023/01/29 07:30:18;;;;;;;8.80;4.20;;;;;;;-3.66;81.22;99257.39;106441;1266;22722;-72
2023/01/29 07:32:45;;;;;;;8.30;4.80;;;;;;;-3.61;81.25;99262.70;106296;1285;138018;-72
2023/01/29 07:35:12;;;;;;;10.30;5.30;;;;;;;-3.56;81.16;99256.70;106408;1285;24318;-72
2023/01/29 07:37:39;;;;;;;6.70;3.80;;;;;;;-3.50;81.05;99258.35;106959;1276;138403;-73
2023/01/29 07:40:10;;;;;;;8.90;5.00;;;;;;;-3.46;81.09;99264.75;107129;1267;24836;-72
2023/01/29 07:42:38;;;;;;;9.20;5.10;;;;;;;-3.40;81.09;99265.80;106434;1277;24218;-72
2023/01/29 07:45:06;;;;;;;8.30;5.00;;;;;;;-3.34;80.65;99269.41;106382;1283;138058;-72
2023/01/29 07:47:33;;;;;;;10.10;5.70;;;;;;;-3.30;80.48;99269.34;106904;1276;23392;-73
2023/01/29 07:50:00;;;;;;;8.50;5.10;;;;;;;-3.24;81.03;99266.69;106313;1284;138679;-72
2023/01/29 07:52:32;;;;;;;8.40;4.50;;;;;;;-3.17;80.61;99269.14;106645;1278;22540;-73
2023/01/29 07:54:59;;;;;;;7.90;4.70;;;;;;;-3.11;80.11;99276.00;106410;1278;22552;-72
2023/01/29 07:57:26;;;;;;;10.60;5.40;;;;;;;-3.04;80.23;99279.32;107265;1277;138079;-73
2023/01/29 07:59:53;;;;;;;8.00;5.00;;;;;;;-2.99;79.77;99283.98;106854;1266;25295;-72
2023/01/29 08:02:19;;;;;;;7.00;5.00;;;;;;;-2.92;79.96;99280.36;106384;1284;138003;-72
2023/01/29 08:04:46;;;;;;;9.50;5.50;;;;;;;-2.84;79.68;99276.07;106559;1284;22545;-72
2023/01/29 08:07:13;;;;;;;10.50;5.80;;;;;;;-2.75;79.63;99277.94;106622;1276;25372;-72
2023/01/29 08:09:40;;;;;;;8.70;5.80;;;;;;;-2.65;79.55;99281.34;106796;1264;139778;-72
2023/01/29 08:12:07;;;;;;;7.10;4.50;;;;;;;-2.56;79.56;99280.30;106215;1286;22540;-72
2023/01/29 08:14:34;;;;;;;9.60;5.40;;;;;;;-2.48;78.55;99285.61;106266;1285;138079;-72
2023/01/29 08:17:01;;;;;;;7.70;5.10;;;;;;;-2.41;78.61;99286.93;106312;1285;25377;-72
2023/01/29 08:19:27;;;;;;;6.80;4.60;;;;;;;-2.34;78.08;99292.17;106149;1263;138102;-73
2023/01/29 08:21:54;;;;;;;7.10;4.60;;;;;;;-2.27;78.16;99299.86;106383;1261;22554;-72
2023/01/29 08:24:21;;;;;;;7.60;5.20;;;;;;;-2.20;78.15;99301.06;106536;1277;22530;-73
2023/01/29 08:26:48;;;;;;;7.20;4.90;;;;;;;-2.16;77.79;99302.73;107422;1277;137901;-73
2023/01/29 08:29:15;;;;;;;7.40;4.10;;;;;;;-2.13;77.31;99313.48;107086;1277;23624;-73
2023/01/29 08:31:42;;;;;;;8.80;4.90;;;;;;;-2.13;77.12;99316.91;106556;1273;138458;-73
2023/01/29 08:34:09;;;;;;;8.20;4.60;;;;;;;-2.12;77.32;99322.30;107267;1278;22560;-74
2023/01/29 08:36:36;;;;;;;9.70;5.20;;;;;;;-2.13;77.45;99316.86;106584;1271;22547;-73
2023/01/29 08:39:03;;;;;;;9.70;5.40;;;;;;;-2.16;77.29;99316.21;106644;1270;138208;-72
2023/01/29 08:41:30;;;;;;;8.90;5.80;;;;;;;-2.14;77.82;99312.00;106523;1267;25439;-72
2023/01/29 08:43:59;;;;;;;13.50;6.30;;;;;;;-2.10;77.93;99311.61;106360;1283;138140;-72
2023/01/29 08:46:26;;;;;;;16.20;7.70;;;;;;;-2.04;77.42;99307.74;106524;1273;24214;-74
2023/01/29 08:48:54;;;;;;;12.20;6.70;;;;;;;-2.00;77.82;99298.21;106663;1277;25408;-72
2023/01/29 08:51:21;;;;;;;11.10;6.10;;;;;;;-1.95;77.12;99294.61;106411;1264;138019;-72
2023/01/29 08:53:48;;;;;;;9.30;5.50;;;;;;;-1.90;76.94;99299.80;106907;1278;22576;-72
2023/01/29 08:56:15;;;;;;;11.20;5.50;;;;;;;-1.86;77.10;99307.44;106693;1278;137881;-72
2023/01/29 08:58:42;;;;;;;11.30;5.40;;;;;;;-1.84;76.63;99303.85;107191;1277;22548;-73
2023/01/29 09:01:11;;;;;;;8.70;5.20;;;;;;;-1.83;76.98;99296.33;106635;1266;22534;-72
2023/01/29 09:03:39;;;;;;;11.10;5.30;;;;;;;-1.82;77.05;99291.70;106708;1274;138047;-73
2023/01/29 09:06:09;;;;;;;12.40;6.40;;;;;;;-1.77;77.37;99290.06;106402;1271;22533;-72
2023/01/29 09:08:36;;;;;;;11.20;6.50;;;;;;;-1.69;77.44;99283.47;106716;1277;140135;-72
2023/01/29 09:11:03;;;;;;;12.50;6.50;;;;;;;-1.64;76.96;99281.86;106576;1265;24289;-73
2023/01/29 09:13:30;;;;;;;9.90;5.50;;;;;;;-1.64;76.25;99284.88;106616;1278;138268;-72
2023/01/29 09:16:01;;;;;;;11.70;6.00;;;;;;;-1.65;76.57;99285.89;106480;1275;22550;-72
2023/01/29 09:18:29;;;;;;;11.40;5.70;;;;;;;-1.63;76.53;99288.89;106579;1278;22562;-72
2023/01/29 09:20:57;;;;;;;9.80;5.80;;;;;;;-1.58;76.84;99301.24;106333;1262;137991;-72
2023/01/29 09:23:24;;;;;;;9.30;5.40;;;;;;;-1.51;76.59;99302.20;106641;1277;25306;-72
2023/01/29 09:25:50;;;;;;;10.80;6.10;;;;;;;-1.48;75.99;99296.39;106278;1264;138135;-72
2023/01/29 09:28:17;;;;;;;12.00;6.50;;;;;;;-1.46;75.80;99294.41;106371;1274;23970;-72
2023/01/29 09:30:44;;;;;;;12.80;6.70;;;;;;;-1.47;75.68;99288.58;106399;1276;23318;-72
2023/01/29 09:33:11;;;;;;;11.60;6.00;;;;;;;-1.46;75.81;99286.73;106741;1268;139489;-74
2023/01/29 09:35:43;;;;;;;10.60;5.80;;;;;;;-1.46;75.33;99275.86;106802;1283;22264;-72
2023/01/29 09:38:09;;;;;;;9.30;5.90;;;;;;;-1.50;75.76;99269.66;106354;1283;138861;-72
2023/01/29 09:40:42;;;;;;;9.20;5.60;;;;;;;-1.52;75.87;99262.23;107193;1270;23354;-72
2023/01/29 09:43:17;;;;;;;8.70;5.40;;;;;;;-1.53;75.96;99258.90;107063;1262;22633;-72
2023/01/29 09:46:06;;;;;;;13.00;7.40;;;;;;;-1.53;76.03;99250.89;107041;1277;139849;-72
2023/01/29 09:48:35;;;;;;;;;;;;;;;-1.55;76.46;99243.27;107212;1271;25229;-72
2023/01/29 09:51:07;;;;;;;11.50;6.70;;;;;;;-1.55;77.00;99237.95;106552;1285;124462;-72
2023/01/29 09:53:39;;;;;;;14.20;7.50;;;;;;;-1.54;77.25;99233.01;107846;1267;22922;-73
2023/01/29 09:56:18;;;;;;;11.60;6.80;;;;;;;-1.51;77.56;99231.52;106754;1278;138295;-74
2023/01/29 09:58:46;;;;;;;12.00;7.20;;;;;;;-1.51;77.36;99232.04;108086;1277;23052;-72
2023/01/29 10:01:28;;;;;;;12.00;8.60;;;;;;;-1.51;77.43;99234.70;107029;1285;22548;-72
2023/01/29 10:04:07;;;;;;;16.00;8.20;;;;;;;-1.55;77.53;99230.07;107995;1266;22604;-73
2023/01/29 10:06:34;;;;;;;17.50;7.80;;;;;;;-1.64;77.90;99234.90;107828;1278;22545;-72
2023/01/29 10:09:16;;;;;;;14.20;8.50;;;;;;;-1.71;78.13;99233.77;106649;1278;138352;-72
2023/01/29 10:11:59;;;;;;;14.10;7.70;;;;;;;-1.76;78.44;99235.81;106802;1264;22560;-73
2023/01/29 10:14:43;;;;;;;11.60;7.70;;;;;;;-1.81;78.51;99232.61;107051;1278;138258;-72
2023/01/29 10:17:25;;;;;;;15.10;8.40;;;;;;;-1.86;78.40;99236.46;106565;1278;22573;-73
2023/01/29 10:20:17;;;;;;;16.60;9.10;;;;;;;-1.85;79.01;99232.80;106343;1275;138431;-72
2023/01/29 10:22:47;;;;;;;14.60;9.20;;;;;;;-1.79;78.98;99231.00;106586;1271;22547;-73
2023/01/29 10:25:17;;;;;;;16.50;9.00;;;;;;;-1.77;79.15;99225.92;107020;1270;22633;-72
2023/01/29 10:27:54;;;;;;;15.30;8.70;;;;;;;-1.73;79.11;99213.30;106559;1273;139189;-71
2023/01/29 10:30:39;;;;;;;18.30;10.50;;;;;;;-1.73;79.17;99207.92;107045;1277;22548;-72
2023/01/29 10:33:16;;;;;;;17.40;9.90;;;;;;;-1.72;79.26;99197.84;106975;1268;138916;-73
2023/01/29 10:35:48;;;;;;;18.10;9.10;;;;;;;-1.70;79.47;99191.09;107594;1277;25343;-72
2023/01/29 10:38:28;;;;;;;13.40;8.50;;;;;;;-1.68;79.59;99188.65;106826;1271;138424;-72
2023/01/29 10:41:09;;;;;;;15.40;9.00;;;;;;;-1.67;79.55;99177.32;106642;1274;24262;-72
2023/01/29 10:43:42;;;;;;;17.80;8.60;;;;;;;-1.67;79.38;99165.20;106662;1261;138592;-72
2023/01/29 10:46:35;;;;;;;14.60;9.40;;;;;;;-1.67;79.32;99159.66;106484;1284;25294;-72
2023/01/29 10:49:02;;;;;;;19.00;10.30;;;;;;;-1.69;79.21;99159.70;106402;1277;22627;-72
2023/01/29 10:51:38;;;;;;;29.20;15.20;;;;;;;-1.75;79.05;99142.84;106972;1277;138516;-72
2023/01/29 10:54:15;;;;;;;21.00;12.60;;;;;;;-1.79;79.41;99140.52;106833;1268;22549;-71
2023/01/29 10:56:45;;;;;;;20.20;11.90;;;;;;;-1.84;79.84;99135.70;106310;1270;138565;-72
2023/01/29 10:59:31;;;;;;;20.60;11.80;;;;;;;-1.89;80.06;99133.27;106785;1278;22565;-72
2023/01/29 11:01:59;;;;;;;17.30;10.20;;;;;;;-1.92;80.25;99127.57;106314;1283;140183;-72
2023/01/29 11:04:27;;;;;;;14.60;9.40;;;;;;;-1.93;80.04;99120.00;106488;1265;23040;-72
2023/01/29 11:06:54;;;;;;;17.80;11.10;;;;;;;-1.94;80.20;99112.46;106461;1275;22627;-72
2023/01/29 11:10:00;;;;;;;15.70;10.20;;;;;;;-1.93;80.63;99105.54;106233;1285;138577;-72
2023/01/29 11:12:30;;;;;;;31.40;17.00;;;;;;;-1.91;79.78;99091.52;106331;1288;22545;-72
2023/01/29 11:15:04;;;;;;;74.20;38.60;;;;;;;-1.90;79.88;99089.69;106106;1265;138615;-72
2023/01/29 11:17:31;;;;;;;67.70;37.00;;;;;;;-1.87;79.80;99083.65;106185;1270;22559;-72
2023/01/29 11:19:58;;;;;;;94.40;51.50;;;;;;;-1.84;79.85;99077.66;106184;1282;139718;-71
2023/01/29 11:22:27;;;;;;;46.20;25.90;;;;;;;-1.84;79.89;99078.35;106235;1284;22785;-71
2023/01/29 11:25:08;;;;;;;;;;;;;;;-1.82;79.81;99077.13;106689;1271;22641;-71
2023/01/29 11:27:47;;;;;;;23.60;13.40;;;;;;;-1.81;79.64;99076.98;107439;1281;126798;-71
2023/01/29 11:30:37;;;;;;;22.80;12.60;;;;;;;-1.80;78.99;99068.36;106706;1286;23816;-71
2023/01/29 11:33:22;;;;;;;;;;;;;;;-1.77;79.12;99064.30;107474;1283;139219;-71
2023/01/29 11:35:51;;;;;;;20.60;11.90;;;;;;;-1.72;79.11;99058.64;106476;1271;23018;-71
2023/01/29 11:38:26;;;;;;;19.10;10.70;;;;;;;-1.68;78.80;99056.17;106313;1275;138752;-71
2023/01/29 11:41:05;;;;;;;21.30;11.10;;;;;;;-1.64;78.55;99056.14;107237;1282;22583;-71
2023/01/29 11:43:32;;;;;;;19.70;11.50;;;;;;;-1.62;77.81;99053.97;106109;1285;139261;-71
2023/01/29 11:46:03;;;;;;;16.20;10.50;;;;;;;-1.61;77.56;99048.68;106311;1269;22572;-71
2023/01/29 11:48:53;;;;;;;19.20;10.50;;;;;;;-1.53;77.32;99040.27;106211;1279;22543;-71
2023/01/29 11:51:23;;;;;;;13.90;8.60;;;;;;;-1.38;76.64;99036.73;106402;1274;138719;-71
2023/01/29 11:53:54;;;;;;;15.40;10.70;;;;;;;-1.26;75.35;99029.77;106483;1262;22545;-71
2023/01/29 11:56:27;;;;;;;16.30;9.90;;;;;;;-1.12;74.67;99021.59;106362;1266;138586;-71
2023/01/29 11:58:56;;;;;;;18.30;10.20;;;;;;;-1.01;73.96;99024.91;106571;1271;22543;-72
2023/01/29 12:01:36;;;;;;;16.00;9.80;;;;;;;-0.95;73.08;99020.41;106573;1277;22556;-71
2023/01/29 12:04:19;;;;;;;13.50;8.40;;;;;;;-0.89;72.50;99020.27;107095;1280;22975;-72
2023/01/29 12:06:50;;;;;;;16.60;10.10;;;;;;;-0.85;72.26;99013.22;107237;1268;24273;-71
2023/01/29 12:09:26;;;;;;;14.40;8.60;;;;;;;-0.82;71.97;99012.95;106840;1278;138475;-71
2023/01/29 12:11:53;;;;;;;15.70;8.20;;;;;;;-0.81;70.85;99007.67;107553;1276;23125;-72
2023/01/29 12:14:29;;;;;;;13.30;8.40;;;;;;;-0.74;71.13;99011.30;106809;1278;137686;-72
2023/01/29 12:17:04;;;;;;;14.80;8.40;;;;;;;-0.70;71.27;99008.14;107060;1267;22540;-71
2023/01/29 12:19:53;;;;;;;17.10;9.30;;;;;;;-0.69;70.59;99010.02;106532;1272;22555;-72